Terminal Aerodrome Forecast
Issued by NWS

Home | Current Version | Previous Version | Text Only | Print | Product List | Glossary On
Versions: 1 2 3 4 5 6 7 8 9 10 11 12 13 14 15 16 17 18 19 20 21
000
FTUS44 KOUN 291127
TAFWWR
TAF
KWWR 291127Z 2912/3012 36013KT P6SM BKN250
     FM292100 05007KT P6SM SCT100 BKN250
      TEMPO 2922/3002 3SM TSRA BKN040CB
     FM300200 04007KT P6SM BKN100 OVC250
      TEMPO 3002/3006 5SM TSRA BKN050CB
     FM300600 VRB03KT P6SM SCT050 OVC100 PROB30 3006/3012 4SM -TSRA
      BKN030CB OVC080=

USA.gov is the U.S. government's official web portal to all federal, state and local government web resources and services.